createdAt,value
2022-08-04T00:01:09.302Z,91.96
2022-08-04T00:04:08.326Z,92.24
2022-08-04T00:06:51.057Z,92.51
2022-08-04T00:09:35.590Z,92.91
2022-08-04T00:12:06.849Z,93.19
2022-08-04T00:14:37.068Z,92.99
2022-08-04T00:17:07.125Z,92.71
2022-08-04T00:19:44.595Z,92.24
2022-08-04T00:22:17.676Z,92.08
2022-08-04T00:24:46.207Z,92.00
2022-08-04T00:27:15.790Z,91.45
2022-08-04T00:29:44.001Z,91.21
2022-08-04T00:32:13.356Z,90.95
2022-08-04T00:34:42.292Z,90.53
2022-08-04T00:37:10.662Z,90.72
2022-08-04T00:39:40.106Z,91.00
2022-08-04T00:42:10.762Z,90.80
2022-08-04T00:44:53.011Z,90.74
2022-08-04T00:47:40.496Z,90.84
2022-08-04T00:50:24.246Z,91.02
2022-08-04T00:52:57.953Z,90.85
2022-08-04T00:56:12.468Z,90.26
2022-08-04T00:58:55.423Z,90.70
2022-08-04T01:01:49.401Z,91.04
2022-08-04T01:04:48.924Z,91.03
2022-08-04T01:07:27.467Z,90.58
2022-08-04T01:10:02.797Z,90.54
2022-08-04T01:12:58.247Z,90.86
2022-08-04T01:15:59.857Z,91.07
2022-08-04T01:18:35.073Z,91.58
2022-08-04T01:21:12.005Z,91.76
2022-08-04T01:24:05.825Z,92.13
2022-08-04T01:26:57.968Z,92.42
2022-08-04T01:29:47.077Z,92.87
2022-08-04T01:32:20.959Z,92.80
2022-08-04T01:35:00.312Z,93.18
2022-08-04T01:38:21.525Z,93.41
2022-08-04T01:40:57.113Z,93.46
2022-08-04T01:43:27.481Z,93.85
2022-08-04T01:46:00.726Z,93.88
2022-08-04T01:48:29.470Z,93.84
2022-08-04T01:51:08.661Z,93.93
2022-08-04T01:53:39.457Z,94.13
2022-08-04T01:56:09.499Z,94.29
2022-08-04T01:58:38.766Z,94.41
2022-08-04T02:01:09.304Z,94.36
2022-08-04T02:04:22.099Z,94.70
2022-08-04T02:06:49.971Z,94.86
2022-08-04T02:09:28.013Z,95.17
2022-08-04T02:12:24.876Z,95.25
2022-08-04T02:15:10.967Z,95.40
2022-08-04T02:17:50.902Z,95.63
2022-08-04T02:20:31.607Z,95.95
2022-08-04T02:23:03.245Z,96.33
2022-08-04T02:25:39.482Z,96.71
2022-08-04T02:28:29.009Z,96.78
2022-08-04T02:30:56.575Z,96.80
2022-08-04T02:33:32.090Z,96.97
2022-08-04T02:36:03.437Z,97.19
2022-08-04T02:38:49.535Z,97.43
2022-08-04T02:41:20.159Z,97.53
2022-08-04T02:43:50.876Z,97.73
2022-08-04T02:46:21.690Z,97.95
2022-08-04T02:48:51.692Z,98.37
2022-08-04T02:51:30.257Z,98.31
2022-08-04T02:54:00.122Z,98.72
2022-08-04T02:56:30.955Z,99.00
2022-08-04T02:59:05.652Z,99.09
2022-08-04T03:01:34.645Z,99.29
2022-08-04T03:04:05.868Z,99.29
2022-08-04T03:07:25.494Z,99.63
2022-08-04T03:10:13.529Z,99.69
2022-08-04T03:13:02.531Z,99.86
2022-08-04T03:15:30.632Z,100.00
2022-08-04T03:18:29.476Z,99.89
2022-08-04T03:21:34.735Z,99.76
2022-08-04T03:24:21.019Z,99.80
2022-08-04T03:26:57.632Z,99.88
2022-08-04T03:30:06.529Z,99.97
2022-08-04T03:32:46.129Z,100.00
2022-08-04T03:35:23.330Z,100.00
2022-08-04T03:37:59.659Z,100.00
2022-08-04T03:41:00.359Z,99.88
2022-08-04T03:43:58.242Z,99.33
2022-08-04T03:47:04.685Z,99.14
2022-08-04T03:49:51.020Z,98.93
2022-08-04T03:53:11.149Z,98.51
2022-08-04T03:55:41.741Z,98.03
2022-08-04T03:58:52.752Z,97.51
2022-08-04T04:02:06.485Z,96.89
2022-08-04T04:04:51.904Z,96.08
2022-08-04T04:07:41.470Z,94.95
2022-08-04T04:10:36.944Z,93.70
2022-08-04T04:13:13.771Z,92.45
2022-08-04T04:16:00.892Z,91.46
2022-08-04T04:18:34.576Z,90.43
2022-08-04T04:21:28.423Z,89.03
2022-08-04T04:24:33.732Z,87.93
2022-08-04T04:27:18.090Z,86.65
2022-08-04T04:30:06.602Z,85.85
2022-08-04T04:32:43.173Z,84.93
2022-08-04T04:35:35.548Z,83.01
2022-08-04T04:38:34.926Z,82.09
2022-08-04T04:41:30.090Z,81.13
2022-08-04T04:44:15.914Z,80.37
2022-08-04T04:47:04.518Z,79.80
2022-08-04T04:49:44.919Z,79.15
2022-08-04T04:52:27.306Z,78.50
2022-08-04T04:55:04.355Z,77.98
2022-08-04T04:57:54.287Z,77.56
2022-08-04T05:00:26.647Z,76.78
2022-08-04T05:03:18.812Z,75.91
2022-08-04T05:06:11.201Z,75.19
2022-08-04T05:08:59.404Z,74.32
2022-08-04T05:11:29.846Z,73.90
2022-08-04T05:14:36.961Z,73.03
2022-08-04T05:17:06.212Z,73.02
2022-08-04T05:19:47.176Z,72.95
2022-08-04T05:22:36.268Z,72.41
2022-08-04T05:25:58.993Z,71.97
2022-08-04T05:28:41.013Z,71.79
2022-08-04T05:31:18.619Z,71.35
2022-08-04T05:34:00.646Z,70.92
2022-08-04T05:36:44.104Z,70.53
2022-08-04T05:39:19.431Z,70.05
2022-08-04T05:41:55.123Z,67.82
2022-08-04T05:44:25.468Z,67.52
2022-08-04T05:46:56.717Z,66.56
2022-08-04T05:49:26.931Z,66.08
2022-08-04T05:51:59.642Z,64.98
2022-08-04T05:54:30.881Z,64.76
2022-08-04T05:56:59.382Z,63.88
2022-08-04T05:59:28.008Z,62.64
2022-08-04T06:01:58.435Z,62.41
2022-08-04T06:04:35.653Z,61.88
2022-08-04T06:07:03.646Z,59.91
2022-08-04T06:09:32.264Z,59.73
2022-08-04T06:12:08.813Z,59.77
2022-08-04T06:14:45.490Z,59.87
2022-08-04T06:18:33.595Z,58.85
2022-08-04T06:20:19.715Z,57.79
2022-08-04T06:22:55.255Z,57.46
2022-08-04T06:25:33.299Z,57.13
2022-08-04T06:28:06.004Z,55.73
2022-08-04T06:30:34.425Z,54.71
2022-08-04T06:33:05.178Z,55.20
2022-08-04T06:35:34.026Z,54.51
2022-08-04T06:38:03.264Z,54.09
2022-08-04T06:40:34.251Z,53.77
2022-08-04T06:43:05.188Z,52.86
2022-08-04T06:45:37.175Z,52.76
2022-08-04T06:48:07.039Z,52.37
2022-08-04T06:51:24.795Z,52.52
2022-08-04T06:53:25.941Z,51.50
2022-08-04T06:55:56.298Z,50.11
2022-08-04T06:58:25.414Z,50.47
2022-08-04T07:00:54.975Z,49.72
2022-08-04T07:03:23.010Z,48.46
2022-08-04T07:05:52.638Z,46.80
2022-08-04T07:08:21.897Z,46.60
2022-08-04T07:10:50.723Z,45.81
2022-08-04T07:13:20.453Z,45.51
2022-08-04T07:15:49.868Z,44.85
2022-08-04T07:18:17.923Z,43.82
2022-08-04T07:20:46.857Z,41.72
2022-08-04T07:23:19.916Z,39.49
2022-08-04T07:25:59.782Z,38.00
2022-08-04T07:28:40.724Z,36.79
2022-08-04T07:31:31.870Z,35.03
2022-08-04T07:34:20.617Z,34.20
2022-08-04T07:36:55.203Z,31.93
2022-08-04T07:39:29.968Z,31.11
2022-08-04T07:42:02.240Z,31.37
2022-08-04T07:44:35.848Z,29.52
2022-08-04T07:47:06.459Z,27.84
2022-08-04T07:49:56.572Z,27.81
2022-08-04T07:52:23.749Z,27.54
2022-08-04T07:54:53.402Z,25.42
2022-08-04T07:57:40.953Z,23.57
2022-08-04T08:00:12.262Z,21.39
2022-08-04T08:02:40.866Z,20.44
2022-08-04T08:05:11.162Z,18.71
2022-08-04T08:07:50.934Z,17.99
2022-08-04T08:10:23.339Z,17.50
2022-08-04T08:12:52.893Z,17.26
2022-08-04T08:15:21.529Z,16.10
2022-08-04T08:17:59.743Z,15.67
2022-08-04T08:20:30.928Z,16.01
2022-08-04T08:23:00.883Z,17.28
2022-08-04T08:25:30.117Z,17.70
2022-08-04T08:27:57.949Z,17.44
2022-08-04T08:30:31.617Z,16.39
2022-08-04T08:33:03.765Z,16.84
2022-08-04T08:35:52.924Z,16.04
2022-08-04T08:38:48.155Z,15.05
2022-08-04T08:41:42.777Z,15.27
2022-08-04T08:44:19.076Z,15.05
2022-08-04T08:48:04.590Z,14.50
2022-08-04T08:50:50.056Z,13.90
2022-08-04T08:53:26.816Z,14.58
2022-08-04T08:56:16.187Z,14.05
2022-08-04T08:59:18.505Z,13.83
2022-08-04T09:02:06.610Z,13.08
2022-08-04T09:04:52.401Z,13.47
2022-08-04T09:07:35.871Z,14.11
2022-08-04T09:10:33.484Z,13.67
2022-08-04T09:13:05.268Z,13.81
2022-08-04T09:16:03.798Z,13.29
2022-08-04T09:18:43.318Z,13.34
2022-08-04T09:21:25.359Z,13.63
2022-08-04T09:24:36.205Z,13.37
2022-08-04T09:27:20.420Z,13.95
2022-08-04T09:30:08.189Z,13.87
2022-08-04T09:32:59.888Z,13.71
2022-08-04T09:35:52.611Z,13.59
2022-08-04T09:38:50.248Z,14.08
2022-08-04T09:41:53.428Z,14.52
2022-08-04T09:44:53.091Z,14.66
2022-08-04T09:47:51.957Z,14.17
2022-08-04T09:50:50.030Z,14.75
2022-08-04T09:53:55.050Z,14.55
2022-08-04T09:56:32.459Z,14.88
2022-08-04T09:59:25.307Z,14.96
2022-08-04T10:02:02.676Z,14.60
2022-08-04T10:04:33.603Z,14.41
2022-08-04T10:07:59.676Z,15.79
2022-08-04T10:11:03.332Z,15.83
2022-08-04T10:13:48.711Z,16.65
2022-08-04T10:16:34.946Z,16.06
2022-08-04T10:19:31.057Z,16.21
2022-08-04T10:22:29.172Z,16.16
2022-08-04T10:25:01.165Z,17.30
2022-08-04T10:27:45.947Z,18.69
2022-08-04T10:30:17.935Z,19.98
2022-08-04T10:33:02.835Z,21.53
2022-08-04T10:35:40.319Z,23.36
2022-08-04T10:38:28.159Z,24.39
2022-08-04T10:41:27.702Z,24.84
2022-08-04T10:44:43.624Z,25.44
2022-08-04T10:47:20.853Z,25.73
2022-08-04T10:49:55.863Z,27.12
2022-08-04T10:52:43.676Z,27.95
2022-08-04T10:55:20.764Z,28.38
2022-08-04T10:58:01.044Z,29.22
2022-08-04T11:00:31.759Z,28.55
2022-08-04T11:03:16.089Z,29.71
2022-08-04T11:05:49.097Z,30.08
2022-08-04T11:08:35.669Z,30.60
2022-08-04T11:11:19.790Z,29.87
2022-08-04T11:13:53.968Z,29.27
2022-08-04T11:16:47.637Z,30.39
2022-08-04T11:19:42.609Z,29.97
2022-08-04T11:22:28.471Z,29.76
2022-08-04T11:25:21.750Z,29.31
2022-08-04T11:27:49.683Z,29.99
2022-08-04T11:30:20.099Z,30.08
2022-08-04T11:33:26.330Z,30.34
2022-08-04T11:36:10.094Z,29.89
2022-08-04T11:38:59.123Z,29.98
2022-08-04T11:41:46.052Z,29.74
2022-08-04T11:44:37.106Z,29.54
2022-08-04T11:47:21.116Z,30.22
2022-08-04T11:49:58.080Z,30.34
2022-08-04T11:52:29.088Z,30.09
2022-08-04T11:54:58.464Z,30.17
2022-08-04T11:57:35.978Z,30.79
2022-08-04T12:00:12.484Z,30.64
2022-08-04T12:03:00.339Z,30.17
2022-08-04T12:05:36.728Z,30.57
2022-08-04T12:08:41.817Z,30.58
2022-08-04T12:11:45.915Z,29.71
2022-08-04T12:14:33.802Z,30.53
2022-08-04T12:17:05.066Z,29.66
2022-08-04T12:20:03.690Z,30.11
2022-08-04T12:22:41.533Z,29.06
2022-08-04T12:25:24.654Z,29.06
2022-08-04T12:27:58.298Z,29.36
2022-08-04T12:31:00.601Z,29.52
2022-08-04T12:34:05.995Z,29.24
2022-08-04T12:37:03.129Z,29.67
2022-08-04T12:39:31.911Z,29.88
2022-08-04T12:42:23.185Z,29.64
2022-08-04T12:44:56.111Z,30.25
2022-08-04T12:47:29.225Z,29.14
2022-08-04T12:50:03.566Z,29.59
2022-08-04T12:55:34.235Z,29.34
2022-08-04T12:58:11.641Z,28.28
2022-08-04T13:00:42.041Z,28.94
2022-08-04T13:03:16.745Z,28.08
2022-08-04T13:05:46.770Z,28.56
2022-08-04T13:08:15.941Z,28.56
2022-08-04T13:10:48.034Z,28.31
2022-08-04T13:13:18.586Z,28.98
2022-08-04T13:15:57.871Z,28.74
2022-08-04T13:18:30.318Z,29.62
2022-08-04T13:22:01.748Z,29.92
2022-08-04T13:24:21.107Z,30.30
2022-08-04T13:27:10.684Z,30.39
2022-08-04T13:30:00.675Z,30.27
2022-08-04T13:32:33.634Z,30.46
2022-08-04T13:35:04.611Z,29.52
2022-08-04T13:37:38.935Z,29.47
2022-08-04T13:40:12.438Z,29.69
2022-08-04T13:42:46.602Z,30.62
2022-08-04T13:45:20.133Z,30.58
2022-08-04T13:47:51.733Z,29.81
2022-08-04T13:50:29.656Z,30.06
2022-08-04T13:53:02.410Z,30.24
2022-08-04T13:55:34.371Z,29.97
2022-08-04T13:58:07.450Z,29.72
2022-08-04T14:00:42.916Z,30.33
2022-08-04T14:03:23.936Z,29.81
2022-08-04T14:06:16.107Z,30.23
2022-08-04T14:08:46.370Z,29.54
2022-08-04T14:12:10.044Z,29.99
2022-08-04T14:14:35.843Z,29.17
2022-08-04T14:17:07.995Z,29.77
2022-08-04T14:20:00.882Z,29.74
2022-08-04T14:22:28.935Z,29.80
2022-08-04T14:25:07.419Z,29.35
2022-08-04T14:27:56.805Z,29.58
2022-08-04T14:30:29.273Z,29.52
2022-08-04T14:33:59.636Z,29.41
2022-08-04T14:35:58.906Z,29.27
2022-08-04T14:39:01.960Z,29.74
2022-08-04T14:41:43.757Z,28.41
2022-08-04T14:44:11.607Z,28.64
2022-08-04T14:46:54.901Z,28.67
2022-08-04T14:49:23.530Z,28.86
2022-08-04T14:51:57.291Z,28.74
2022-08-04T14:54:33.461Z,29.83
2022-08-04T14:57:07.607Z,29.70
2022-08-04T15:00:01.680Z,29.50
2022-08-04T15:02:31.375Z,29.17
2022-08-04T15:06:00.792Z,29.48
2022-08-04T15:07:48.215Z,29.09
2022-08-04T15:10:16.633Z,29.14
2022-08-04T15:12:44.377Z,29.55
2022-08-04T15:15:35.313Z,30.17
2022-08-04T15:18:00.579Z,30.22
2022-08-04T15:20:29.013Z,30.19
2022-08-04T15:22:56.673Z,30.62
2022-08-04T15:25:25.171Z,30.85
2022-08-04T15:27:54.535Z,30.94
2022-08-04T15:30:22.716Z,31.16
2022-08-04T15:32:57.245Z,31.26
2022-08-04T15:35:35.084Z,31.64
2022-08-04T15:38:16.435Z,31.17
2022-08-04T15:41:09.414Z,30.71
2022-08-04T15:44:16.379Z,31.34
2022-08-04T15:46:51.078Z,31.49
2022-08-04T15:49:21.330Z,31.57
2022-08-04T15:52:11.932Z,31.79
2022-08-04T15:54:42.537Z,31.83
2022-08-04T15:58:18.453Z,31.42
2022-08-04T16:00:53.986Z,31.72
2022-08-04T16:03:53.049Z,31.58
2022-08-04T16:06:29.070Z,30.95
2022-08-04T16:09:02.251Z,30.72
2022-08-04T16:11:32.159Z,30.87
2022-08-04T16:14:02.895Z,30.86
2022-08-04T16:16:50.703Z,30.94
2022-08-04T16:19:53.256Z,31.39
2022-08-04T16:22:48.867Z,31.86
2022-08-04T16:25:17.906Z,31.88
2022-08-04T16:27:45.757Z,31.15
2022-08-04T16:30:15.293Z,31.19
2022-08-04T16:32:45.478Z,31.49
2022-08-04T16:35:28.742Z,31.64
2022-08-04T16:38:15.309Z,31.82
2022-08-04T16:40:46.638Z,31.83
2022-08-04T16:43:20.730Z,31.97
2022-08-04T16:45:50.094Z,32.09
2022-08-04T16:48:19.710Z,32.40
2022-08-04T16:50:55.515Z,32.43
2022-08-04T16:53:53.649Z,32.18
2022-08-04T16:56:18.864Z,32.58
2022-08-04T16:58:53.773Z,32.79
2022-08-04T17:01:32.963Z,32.80
2022-08-04T17:04:07.085Z,32.90
2022-08-04T17:06:37.600Z,33.28
2022-08-04T17:09:16.319Z,33.38
2022-08-04T17:11:45.967Z,33.96
2022-08-04T17:14:20.902Z,34.49
2022-08-04T17:16:48.587Z,34.51
2022-08-04T17:19:23.708Z,34.78
2022-08-04T17:22:06.654Z,34.96
2022-08-04T17:24:38.337Z,35.17
2022-08-04T17:28:10.934Z,35.67
2022-08-04T17:29:55.682Z,35.66
2022-08-04T17:32:24.244Z,35.77
2022-08-04T17:34:54.484Z,36.10
2022-08-04T17:40:22.579Z,36.82
2022-08-04T17:44:00.983Z,37.58
2022-08-04T17:46:28.689Z,37.65
2022-08-04T17:49:01.895Z,37.79
2022-08-04T17:52:04.478Z,38.08
2022-08-04T17:54:38.942Z,38.47
2022-08-04T17:57:21.226Z,38.81
2022-08-04T17:59:59.091Z,39.01
2022-08-04T18:02:32.954Z,39.65
2022-08-04T18:05:07.903Z,40.02
2022-08-04T18:08:35.354Z,40.35
2022-08-04T18:10:55.423Z,40.95
2022-08-04T18:13:26.148Z,41.49
2022-08-04T18:16:04.865Z,42.24
2022-08-04T18:18:33.125Z,43.09
2022-08-04T18:21:02.936Z,43.88
2022-08-04T18:23:32.039Z,44.61
2022-08-04T18:26:02.187Z,45.10
2022-08-04T18:28:33.797Z,45.93
2022-08-04T18:31:02.515Z,46.43
2022-08-04T18:33:39.558Z,47.53
2022-08-04T18:36:32.795Z,47.86
2022-08-04T18:39:12.103Z,48.68
2022-08-04T18:42:02.596Z,49.74
2022-08-04T18:44:36.304Z,50.57
2022-08-04T18:47:23.195Z,51.22
2022-08-04T18:51:00.289Z,51.50
2022-08-04T18:52:45.642Z,52.57
2022-08-04T18:55:56.208Z,53.21
2022-08-04T18:58:06.329Z,53.68
2022-08-04T19:00:36.094Z,54.71
2022-08-04T19:03:04.517Z,55.48
2022-08-04T19:08:33.326Z,56.38
2022-08-04T19:11:37.133Z,56.82
2022-08-04T19:13:54.845Z,57.06
2022-08-04T19:16:29.705Z,57.31
2022-08-04T19:19:00.435Z,57.72
2022-08-04T19:21:59.488Z,58.08
2022-08-04T19:24:31.226Z,58.81
2022-08-04T19:27:08.229Z,59.41
2022-08-04T19:29:41.339Z,59.70
2022-08-04T19:32:15.136Z,60.03
2022-08-04T19:34:47.464Z,60.36
2022-08-04T19:38:01.047Z,61.00
2022-08-04T19:40:10.159Z,61.75
2022-08-04T19:42:38.924Z,62.30
2022-08-04T19:45:09.545Z,63.01
2022-08-04T19:48:17.991Z,63.55
2022-08-04T19:50:32.396Z,64.01
2022-08-04T19:53:01.216Z,64.25
2022-08-04T19:55:38.322Z,64.77
2022-08-04T20:00:55.815Z,64.55
2022-08-04T20:04:08.869Z,64.28
2022-08-04T20:06:11.732Z,64.39
2022-08-04T20:08:48.138Z,64.48
2022-08-04T20:11:17.257Z,64.70
2022-08-04T20:13:54.793Z,65.02
2022-08-04T20:16:29.664Z,66.00
2022-08-04T20:19:03.200Z,66.49
2022-08-04T20:21:54.093Z,66.94
2022-08-04T20:24:39.202Z,67.56
2022-08-04T20:27:15.171Z,68.12
2022-08-04T20:29:49.760Z,68.21
2022-08-04T20:32:21.850Z,68.34
2022-08-04T20:34:52.620Z,68.29
2022-08-04T20:37:25.973Z,68.01
2022-08-04T20:40:13.453Z,68.03
2022-08-04T20:42:41.534Z,68.76
2022-08-04T20:45:16.466Z,69.01
2022-08-04T20:47:53.382Z,69.21
2022-08-04T20:50:29.722Z,69.37
2022-08-04T20:52:58.922Z,69.52
2022-08-04T20:55:29.390Z,70.03
2022-08-04T20:58:03.003Z,70.37
2022-08-04T21:00:31.983Z,71.00
2022-08-04T21:02:59.986Z,71.21
2022-08-04T21:05:27.866Z,71.38
2022-08-04T21:07:57.223Z,71.63
2022-08-04T21:10:26.247Z,71.50
2022-08-04T21:12:54.699Z,71.56
2022-08-04T21:18:16.716Z,72.12
2022-08-04T21:20:45.310Z,72.19
2022-08-04T21:23:16.298Z,72.50
2022-08-04T21:25:45.628Z,72.67
2022-08-04T21:28:20.471Z,72.62
2022-08-04T21:30:54.726Z,73.05
2022-08-04T21:33:43.914Z,73.21
2022-08-04T21:36:14.434Z,73.55
2022-08-04T21:38:50.896Z,73.91
2022-08-04T21:41:20.345Z,74.20
2022-08-04T21:43:55.131Z,74.94
2022-08-04T21:46:23.707Z,75.33
2022-08-04T21:48:51.549Z,75.55
2022-08-04T21:51:58.807Z,75.53
2022-08-04T21:54:15.141Z,75.64
2022-08-04T21:56:51.322Z,75.79
2022-08-04T21:59:23.858Z,75.91
2022-08-04T22:02:01.029Z,76.18
2022-08-04T22:04:29.906Z,76.41
2022-08-04T22:06:58.484Z,76.75
2022-08-04T22:09:31.741Z,76.81
2022-08-04T22:12:10.422Z,76.80
2022-08-04T22:14:39.927Z,76.90
2022-08-04T22:17:23.627Z,77.04
2022-08-04T22:19:56.252Z,77.12
2022-08-04T22:22:29.334Z,76.90
2022-08-04T22:25:12.617Z,77.00
2022-08-04T22:28:02.666Z,77.08
2022-08-04T22:30:37.476Z,77.29
2022-08-04T22:33:08.980Z,77.57
2022-08-04T22:35:49.428Z,77.52
2022-08-04T22:38:26.786Z,77.53
2022-08-04T22:41:03.169Z,77.86
2022-08-04T22:43:34.434Z,77.86
2022-08-04T22:46:06.390Z,78.05
2022-08-04T22:48:36.780Z,78.19
2022-08-04T22:51:07.052Z,78.81
2022-08-04T22:53:36.003Z,78.80
2022-08-04T22:56:09.574Z,78.92
2022-08-04T22:58:45.588Z,79.21
2022-08-04T23:01:18.314Z,79.41
2022-08-04T23:03:55.555Z,79.64
2022-08-04T23:06:28.698Z,80.02
2022-08-04T23:08:57.805Z,80.18
2022-08-04T23:11:34.722Z,80.19
2022-08-04T23:14:05.081Z,80.14
2022-08-04T23:16:40.308Z,80.19
2022-08-04T23:19:15.151Z,79.96
2022-08-04T23:21:47.654Z,79.66
2022-08-04T23:24:15.890Z,79.60
2022-08-04T23:26:46.099Z,79.35
2022-08-04T23:29:14.330Z,79.31
2022-08-04T23:31:59.434Z,79.26
2022-08-04T23:34:29.292Z,79.32
2022-08-04T23:36:59.066Z,79.35
2022-08-04T23:39:42.276Z,79.35
2022-08-04T23:42:21.252Z,79.57
2022-08-04T23:44:50.103Z,79.51
2022-08-04T23:48:18.488Z,79.35
2022-08-04T23:50:06.103Z,79.28
2022-08-04T23:52:33.853Z,79.19
2022-08-04T23:55:02.420Z,79.33
2022-08-04T23:57:31.096Z,79.26
